CYXQ

Beaver Creek Airport

Beaver Creek, , Canada
METAR CYXQ 172300Z 16003KT 30SM FEW120 BKN190 M23/M26 A2951 RMK AC2AC5 CLIMAT -21.6/-24.1/0.0/LAST STFD OBS/NXT 181700Z SLP061
Observed Flight Rules
Dec-17 @ 23:00 UTC (18 hours ago) Visual Flight Rules
Wind Visibility Clouds
160° at 3 knots 30 miles
  • Few at 12,000' AGL
  • Broken at 19,000' AGL
Temperatures Readings
Current -23°C / -9°F
Dewpoint -26°C / -15°F
Humidity 77%
Altimeter 29.51" Hg
Pressure 1006.1 hPa
Elevation 649
METAR CYXQ 172300Z 16003KT 30SM FEW120 BKN190 M23/M26 A2951 RMK AC2AC5 CLIMAT -21.6/-24.1/0.0/LAST STFD OBS/NXT 181700Z SLP061
Observed Flight Rules
Dec-17 @ 23:00 UTC
(18 hours ago)
VFR
Wind Visibility
160° at 3 knots 30 miles
Clouds
  • Few at 12,000' AGL
  • Broken at 19,000' AGL
Temperature Dewpoint
-23°C / -9°F -26°C / -15°F
Humidity Altimeter Pressure
77% 29.51" Hg 1006.1 hPa